createdAt,value
2023-01-15T00:01:22.045Z,91216.84
2023-01-15T00:02:44.154Z,91214.16
2023-01-15T00:04:07.468Z,91219.75
2023-01-15T00:05:29.403Z,91218.94
2023-01-15T00:06:51.264Z,91212.50
2023-01-15T00:08:13.024Z,91225.16
2023-01-15T00:09:35.107Z,91219.91
2023-01-15T00:10:57.994Z,91222.28
2023-01-15T00:12:19.953Z,91222.28
2023-01-15T00:13:42.330Z,91221.47
2023-01-15T00:15:04.449Z,91220.69
2023-01-15T00:16:27.717Z,91222.28
2023-01-15T00:17:49.641Z,91218.78
2023-01-15T00:19:12.382Z,91219.56
2023-01-15T00:20:33.968Z,91218.78
2023-01-15T00:21:55.798Z,91216.06
2023-01-15T00:23:37.801Z,91215.28
2023-01-15T00:25:18.117Z,91220.16
2023-01-15T00:26:59.119Z,91215.91
2023-01-15T00:28:20.988Z,91219.38
2023-01-15T00:29:42.575Z,91220.97
2023-01-15T00:31:06.186Z,91217.63
2023-01-15T00:32:29.801Z,91226.03
2023-01-15T00:33:51.588Z,91226.97
2023-01-15T00:35:16.099Z,91223.66
2023-01-15T00:36:37.968Z,91221.13
2023-01-15T00:38:01.770Z,91228.72
2023-01-15T00:39:25.546Z,91225.41
2023-01-15T00:40:52.926Z,91227.78
2023-01-15T00:42:14.706Z,91229.34
2023-01-15T00:43:36.312Z,91227.63
2023-01-15T00:44:58.404Z,91227.44
2023-01-15T00:46:20.749Z,91225.69
2023-01-15T00:47:45.612Z,91233.31
2023-01-15T00:49:07.600Z,91228.06
2023-01-15T00:50:30.379Z,91232.16
2023-01-15T00:51:53.041Z,91227.88
2023-01-15T00:53:14.700Z,91228.66
2023-01-15T00:54:36.700Z,91224.41
2023-01-15T00:55:58.653Z,91234.53
2023-01-15T00:57:20.656Z,91225.97
2023-01-15T00:58:42.667Z,91228.31
2023-01-15T01:00:05.193Z,91222.47
2023-01-15T01:01:27.223Z,91227.72
2023-01-15T01:02:48.964Z,91212.53
2023-01-15T01:04:10.909Z,91225.34
2023-01-15T01:05:33.198Z,91212.69
2023-01-15T01:06:55.481Z,91214.44
2023-01-15T01:08:17.662Z,91219.69
2023-01-15T01:09:39.770Z,91224.75
2023-01-15T01:11:10.477Z,91228.06
2023-01-15T01:12:32.523Z,91227.09
2023-01-15T01:13:55.832Z,91223.59
2023-01-15T01:15:18.340Z,91225.19
2023-01-15T01:16:42.132Z,91227.72
2023-01-15T01:18:05.727Z,91216.78
2023-01-15T01:19:28.022Z,91218.38
2023-01-15T01:20:49.766Z,91220.91
2023-01-15T01:22:11.693Z,91219.94
2023-01-15T01:23:33.543Z,91211.72
2023-01-15T01:24:55.405Z,91213.31
2023-01-15T01:26:17.952Z,91213.13
2023-01-15T01:27:39.852Z,91209.03
2023-01-15T01:29:02.346Z,91209.81
2023-01-15T01:30:24.107Z,91211.56
2023-01-15T01:31:46.580Z,91206.31
2023-01-15T01:33:08.724Z,91204.56
2023-01-15T01:34:30.857Z,91200.47
2023-01-15T01:35:52.529Z,91205.34
2023-01-15T01:37:15.994Z,91200.28
2023-01-15T01:38:37.871Z,91194.25
2023-01-15T01:39:59.693Z,91191.72
2023-01-15T01:41:21.438Z,91189.19
2023-01-15T01:42:43.178Z,91186.66
2023-01-15T01:44:25.105Z,91189.19
2023-01-15T01:45:46.859Z,91186.66
2023-01-15T01:47:22.800Z,91190.94
2023-01-15T01:48:45.044Z,91196.00
2023-01-15T01:50:12.236Z,91189.19
2023-01-15T01:51:58.491Z,91181.59
2023-01-15T01:53:26.583Z,91181.59
2023-01-15T01:54:49.921Z,91186.50
2023-01-15T01:56:11.876Z,91189.81
2023-01-15T01:57:34.169Z,91183.81
2023-01-15T01:58:56.979Z,91186.34
2023-01-15T02:00:21.477Z,91195.50
2023-01-15T02:01:43.402Z,91193.75
2023-01-15T02:03:08.884Z,91186.16
2023-01-15T02:04:31.739Z,91192.81
2023-01-15T02:05:58.705Z,91194.56
2023-01-15T02:07:21.168Z,91191.22
2023-01-15T02:08:43.627Z,91193.75
2023-01-15T02:10:06.204Z,91187.44
2023-01-15T02:11:29.881Z,91190.66
2023-01-15T02:13:12.570Z,91194.94
2023-01-15T02:14:38.126Z,91193.38
2023-01-15T02:16:21.225Z,91189.09
2023-01-15T02:18:06.643Z,91190.84
2023-01-15T02:19:34.052Z,91196.88
2023-01-15T02:21:07.280Z,91189.44
2023-01-15T02:22:32.060Z,91197.97
2023-01-15T02:24:00.370Z,91195.44
2023-01-15T02:25:44.002Z,91197.19
2023-01-15T02:27:06.255Z,91204.63
2023-01-15T02:28:51.453Z,91197.97
2023-01-15T02:30:28.857Z,91198.59
2023-01-15T02:31:53.356Z,91198.44
2023-01-15T02:33:23.032Z,91200.78
2023-01-15T02:34:50.544Z,91194.94
2023-01-15T02:36:16.236Z,91200.63
2023-01-15T02:37:42.387Z,91204.72
2023-01-15T02:39:11.273Z,91191.88
2023-01-15T02:40:35.202Z,91196.78
2023-01-15T02:42:00.506Z,91199.13
2023-01-15T02:43:32.712Z,91194.84
2023-01-15T02:44:58.710Z,91196.44
2023-01-15T02:46:24.990Z,91195.50
2023-01-15T02:47:47.960Z,91192.00
2023-01-15T02:49:13.984Z,91194.53
2023-01-15T02:50:55.864Z,91196.28
2023-01-15T02:52:22.509Z,91196.09
2023-01-15T02:53:48.493Z,91194.53
2023-01-15T02:55:24.339Z,91199.41
2023-01-15T02:56:49.536Z,91195.94
2023-01-15T02:58:15.553Z,91203.53
2023-01-15T02:59:48.418Z,91198.28
2023-01-15T03:01:18.930Z,91195.94
2023-01-15T03:02:46.846Z,91190.06
2023-01-15T03:04:21.774Z,91186.94
2023-01-15T03:06:16.468Z,91189.47
2023-01-15T03:07:51.384Z,91189.28
2023-01-15T03:09:15.369Z,91196.09
2023-01-15T03:10:48.541Z,91192.59
2023-01-15T03:12:20.321Z,91189.91
2023-01-15T03:14:12.039Z,91192.44
2023-01-15T03:16:19.908Z,91191.47
2023-01-15T03:17:55.173Z,91192.25
2023-01-15T03:19:22.565Z,91194.78
2023-01-15T03:20:54.453Z,91200.63
2023-01-15T03:22:29.922Z,91201.44
2023-01-15T03:23:55.040Z,91203.19
2023-01-15T03:25:27.453Z,91200.47
2023-01-15T03:26:52.305Z,91201.25
2023-01-15T03:28:17.817Z,91197.16
2023-01-15T03:29:49.345Z,91195.41
2023-01-15T03:31:11.618Z,91195.41
2023-01-15T03:32:33.873Z,91202.03
2023-01-15T03:33:58.526Z,91203.00
2023-01-15T03:35:47.650Z,91203.59
2023-01-15T03:37:20.759Z,91194.44
2023-01-15T03:38:46.932Z,91190.16
2023-01-15T03:40:17.792Z,91188.59
2023-01-15T03:41:50.206Z,91188.59
2023-01-15T03:43:34.134Z,91187.81
2023-01-15T03:45:14.886Z,91183.53
2023-01-15T03:46:47.631Z,91188.59
2023-01-15T03:48:12.839Z,91192.88
2023-01-15T03:49:37.861Z,91190.16
2023-01-15T03:51:20.382Z,91195.22
2023-01-15T03:53:00.475Z,91194.44
2023-01-15T03:54:48.059Z,91189.38
2023-01-15T03:56:25.110Z,91199.50
2023-01-15T03:57:49.837Z,91191.13
2023-01-15T03:59:23.263Z,91195.22
2023-01-15T04:00:59.864Z,91199.50
2023-01-15T04:02:24.531Z,91194.44
2023-01-15T04:03:49.001Z,91197.94
2023-01-15T04:05:12.954Z,91193.66
2023-01-15T04:06:38.858Z,91197.94
2023-01-15T04:08:01.611Z,91195.41
2023-01-15T04:09:25.666Z,91197.16
2023-01-15T04:11:02.432Z,91197.94
2023-01-15T04:12:34.831Z,91197.16
2023-01-15T04:13:57.253Z,91198.91
2023-01-15T04:15:28.379Z,91199.25
2023-01-15T04:16:50.316Z,91199.41
2023-01-15T04:18:12.616Z,91194.34
2023-01-15T04:19:34.864Z,91198.47
2023-01-15T04:20:59.751Z,91199.41
2023-01-15T04:22:22.864Z,91193.41
2023-01-15T04:23:44.863Z,91200.38
2023-01-15T04:25:08.019Z,91197.84
2023-01-15T04:26:29.495Z,91205.44
2023-01-15T04:27:53.874Z,91204.66
2023-01-15T04:29:15.696Z,91202.91
2023-01-15T04:30:37.615Z,91196.44
2023-01-15T04:31:59.532Z,91202.13
2023-01-15T04:33:21.232Z,91200.38
2023-01-15T04:34:43.015Z,91199.59
2023-01-15T04:36:05.315Z,91192.97
2023-01-15T04:37:27.297Z,91197.25
2023-01-15T04:38:49.313Z,91197.06
2023-01-15T04:40:32.146Z,91204.66
2023-01-15T04:42:12.657Z,91201.34
2023-01-15T04:43:52.665Z,91206.22
2023-01-15T04:45:14.433Z,91205.44
2023-01-15T04:46:39.601Z,91208.75
2023-01-15T04:48:01.167Z,91205.28
2023-01-15T04:49:23.112Z,91205.28
2023-01-15T04:50:44.909Z,91203.53
2023-01-15T04:52:07.087Z,91209.38
2023-01-15T04:53:28.744Z,91211.91
2023-01-15T04:54:50.579Z,91206.06
2023-01-15T04:56:12.647Z,91216.19
2023-01-15T04:57:35.422Z,91215.41
2023-01-15T04:58:59.471Z,91206.06
2023-01-15T05:00:23.126Z,91210.34
2023-01-15T05:02:01.918Z,91218.91
2023-01-15T05:03:25.370Z,91224.91
2023-01-15T05:04:47.536Z,91227.16
2023-01-15T05:06:09.816Z,91223.94
2023-01-15T05:07:31.485Z,91219.34
2023-01-15T05:08:53.512Z,91216.03
2023-01-15T05:10:15.609Z,91222.84
2023-01-15T05:11:39.454Z,91222.22
2023-01-15T05:13:01.280Z,91216.56
2023-01-15T05:14:22.981Z,91226.69
2023-01-15T05:15:49.013Z,91223.88
2023-01-15T05:17:10.868Z,91228.00
2023-01-15T05:18:32.791Z,91238.25
2023-01-15T05:19:54.571Z,91237.19
2023-01-15T05:21:25.555Z,91237.03
2023-01-15T05:22:47.320Z,91242.69
2023-01-15T05:24:13.127Z,91238.44
2023-01-15T05:25:37.769Z,91239.38
2023-01-15T05:26:59.768Z,91238.59
2023-01-15T05:28:21.363Z,91238.06
2023-01-15T05:29:43.419Z,91238.06
2023-01-15T05:31:10.402Z,91239.94
2023-01-15T05:32:32.159Z,91240.28
2023-01-15T05:33:55.720Z,91231.13
2023-01-15T05:35:17.587Z,91235.22
2023-01-15T05:36:39.556Z,91237.16
2023-01-15T05:38:01.388Z,91233.03
2023-01-15T05:39:23.262Z,91232.44
2023-01-15T05:40:45.362Z,91230.06
2023-01-15T05:42:10.291Z,91238.28
2023-01-15T05:43:31.930Z,91230.84
2023-01-15T05:44:53.980Z,91234.34
2023-01-15T05:46:15.762Z,91230.38
2023-01-15T05:47:37.340Z,91241.47
2023-01-15T05:49:04.289Z,91235.78
2023-01-15T05:50:28.903Z,91232.66
2023-01-15T05:51:52.516Z,91236.75
2023-01-15T05:53:14.470Z,91238.50
2023-01-15T05:54:37.043Z,91232.66
2023-01-15T05:56:02.075Z,91238.50
2023-01-15T05:57:23.843Z,91231.06
2023-01-15T05:58:45.797Z,91235.00
2023-01-15T06:00:11.322Z,91233.44
2023-01-15T06:01:36.320Z,91230.09
2023-01-15T06:02:58.356Z,91233.44
2023-01-15T06:04:21.875Z,91224.88
2023-01-15T06:05:43.964Z,91230.56
2023-01-15T06:07:05.951Z,91232.13
2023-01-15T06:08:27.415Z,91225.19
2023-01-15T06:09:49.121Z,91224.22
2023-01-15T06:11:11.659Z,91224.06
2023-01-15T06:12:33.924Z,91225.78
2023-01-15T06:13:56.269Z,91223.09
2023-01-15T06:15:17.898Z,91228.50
2023-01-15T06:16:41.271Z,91230.56
2023-01-15T06:18:03.339Z,91228.19
2023-01-15T06:19:25.034Z,91226.44
2023-01-15T06:20:46.602Z,91231.50
2023-01-15T06:22:10.876Z,91230.72
2023-01-15T06:23:36.597Z,91228.97
2023-01-15T06:24:58.833Z,91228.97
2023-01-15T06:26:20.527Z,91232.31
2023-01-15T06:27:44.585Z,91229.78
2023-01-15T06:29:06.347Z,91237.19
2023-01-15T06:30:28.075Z,91232.13
2023-01-15T06:31:50.231Z,91232.91
2023-01-15T06:33:12.368Z,91230.38
2023-01-15T06:34:33.940Z,91230.38
2023-01-15T06:35:55.968Z,91243.81
2023-01-15T06:37:17.712Z,91237.50
2023-01-15T06:38:39.859Z,91242.22
2023-01-15T06:40:01.672Z,91239.50
2023-01-15T06:41:54.696Z,91234.09
2023-01-15T06:43:35.428Z,91236.94
2023-01-15T06:45:15.643Z,91238.34
2023-01-15T06:47:01.549Z,91243.66
2023-01-15T06:48:27.245Z,91241.25
2023-01-15T06:49:55.164Z,91242.31
2023-01-15T06:51:20.450Z,91236.59
2023-01-15T06:52:42.143Z,91234.94
2023-01-15T06:54:04.029Z,91241.50
2023-01-15T06:55:25.719Z,91239.69
2023-01-15T06:56:47.976Z,91239.44
2023-01-15T06:58:09.741Z,91235.28
2023-01-15T06:59:32.118Z,91240.53
2023-01-15T07:00:56.282Z,91235.97
2023-01-15T07:02:18.567Z,91242.78
2023-01-15T07:03:40.400Z,91235.72
2023-01-15T07:05:02.518Z,91238.41
2023-01-15T07:06:26.432Z,91239.97
2023-01-15T07:07:48.668Z,91239.34
2023-01-15T07:09:10.416Z,91237.72
2023-01-15T07:10:33.817Z,91235.16
2023-01-15T07:11:55.529Z,91232.56
2023-01-15T07:13:17.187Z,91226.03
2023-01-15T07:14:39.037Z,91230.88
2023-01-15T07:16:02.853Z,91230.38
2023-01-15T07:17:24.514Z,91223.28
2023-01-15T07:18:46.487Z,91224.34
2023-01-15T07:20:09.069Z,91227.72
2023-01-15T07:21:31.341Z,91229.28
2023-01-15T07:22:53.436Z,91227.50
2023-01-15T07:24:17.105Z,91226.94
2023-01-15T07:25:38.941Z,91238.53
2023-01-15T07:27:01.252Z,91231.50
2023-01-15T07:28:24.785Z,91232.81
2023-01-15T07:29:46.679Z,91234.47
2023-01-15T07:31:08.434Z,91240.78
2023-01-15T07:32:31.168Z,91246.25
2023-01-15T07:33:52.803Z,91246.41
2023-01-15T07:35:14.781Z,91245.53
2023-01-15T07:36:37.296Z,91244.88
2023-01-15T07:37:59.066Z,91240.28
2023-01-15T07:39:21.040Z,91237.38
2023-01-15T07:40:42.921Z,91232.91
2023-01-15T07:42:23.287Z,91234.09
2023-01-15T07:44:04.111Z,91235.84
2023-01-15T07:45:44.350Z,91237.00
2023-01-15T07:47:37.033Z,91234.63
2023-01-15T07:49:17.354Z,91241.09
2023-01-15T07:50:39.429Z,91237.06
2023-01-15T07:52:01.157Z,91233.81
2023-01-15T07:53:22.756Z,91230.31
2023-01-15T07:54:45.987Z,91240.56
2023-01-15T07:56:08.745Z,91232.78
2023-01-15T07:57:30.927Z,91236.16
2023-01-15T07:58:52.642Z,91230.84
2023-01-15T08:00:20.142Z,91232.47
2023-01-15T08:01:42.016Z,91232.75
2023-01-15T08:03:04.173Z,91241.22
2023-01-15T08:04:26.331Z,91240.41
2023-01-15T08:05:48.114Z,91238.50
2023-01-15T08:07:10.531Z,91236.19
2023-01-15T08:08:32.470Z,91236.19
2023-01-15T08:09:54.481Z,91235.97
2023-01-15T08:11:35.087Z,91240.28
2023-01-15T08:13:15.208Z,91240.69
2023-01-15T08:14:55.504Z,91237.19
2023-01-15T08:16:17.505Z,91233.38
2023-01-15T08:17:43.803Z,91244.34
2023-01-15T08:19:06.083Z,91243.44
2023-01-15T08:20:28.277Z,91232.22
2023-01-15T08:21:50.266Z,91246.06
2023-01-15T08:23:12.089Z,91245.75
2023-01-15T08:24:34.202Z,91241.44
2023-01-15T08:25:58.864Z,91236.00
2023-01-15T08:27:20.839Z,91237.44
2023-01-15T08:28:42.794Z,91237.75
2023-01-15T08:30:06.882Z,91238.69
2023-01-15T08:31:28.571Z,91248.94
2023-01-15T08:32:50.369Z,91243.06
2023-01-15T08:34:12.283Z,91237.97
2023-01-15T08:35:34.674Z,91236.44
2023-01-15T08:37:00.274Z,91226.41
2023-01-15T08:38:22.203Z,91233.06
2023-01-15T08:39:44.199Z,91232.94
2023-01-15T08:41:06.296Z,91232.03
2023-01-15T08:42:28.471Z,91227.13
2023-01-15T08:43:51.021Z,91226.38
2023-01-15T08:45:12.959Z,91230.50
2023-01-15T08:46:34.691Z,91234.38
2023-01-15T08:47:58.355Z,91223.72
2023-01-15T08:49:20.906Z,91227.41
2023-01-15T08:50:42.708Z,91224.97
2023-01-15T08:52:05.245Z,91225.31
2023-01-15T08:53:29.321Z,91230.19
2023-01-15T08:54:50.908Z,91231.38
2023-01-15T08:56:20.770Z,91231.19
2023-01-15T08:57:44.525Z,91228.97
2023-01-15T08:59:08.274Z,91225.03
2023-01-15T09:00:30.347Z,91226.06
2023-01-15T09:01:52.134Z,91221.81
2023-01-15T09:03:15.786Z,91226.00
2023-01-15T09:04:38.659Z,91220.38
2023-01-15T09:06:02.118Z,91219.19
2023-01-15T09:07:24.005Z,91220.03
2023-01-15T09:08:45.765Z,91226.81
2023-01-15T09:10:08.064Z,91216.25
2023-01-15T09:11:30.039Z,91217.78
2023-01-15T09:12:51.671Z,91216.94
2023-01-15T09:14:56.764Z,91223.63
2023-01-15T09:16:05.386Z,91214.66
2023-01-15T09:17:27.335Z,91219.41
2023-01-15T09:18:48.957Z,91212.88
2023-01-15T09:20:13.246Z,91197.59
2023-01-15T09:21:35.601Z,91197.59
2023-01-15T09:22:57.163Z,91201.50
2023-01-15T09:24:19.047Z,91202.00
2023-01-15T09:25:42.355Z,91195.59
2023-01-15T09:27:04.473Z,91206.38
2023-01-15T09:28:27.526Z,91200.22
2023-01-15T09:29:49.077Z,91198.81
2023-01-15T09:31:11.238Z,91195.72
2023-01-15T09:32:33.817Z,91198.91
2023-01-15T09:33:56.082Z,91189.09
2023-01-15T09:35:18.097Z,91196.16
2023-01-15T09:36:41.376Z,91192.09
2023-01-15T09:38:03.448Z,91192.84
2023-01-15T09:39:25.060Z,91185.94
2023-01-15T09:40:56.813Z,91194.19
2023-01-15T09:42:39.256Z,91186.44
2023-01-15T09:44:28.173Z,91200.28
2023-01-15T09:46:20.352Z,91195.22
2023-01-15T09:47:45.530Z,91189.06
2023-01-15T09:49:45.198Z,91178.81
2023-01-15T09:51:35.649Z,91182.56
2023-01-15T09:53:17.422Z,91182.53
2023-01-15T09:54:57.543Z,91188.56
2023-01-15T09:56:25.597Z,91182.16
2023-01-15T09:57:54.784Z,91179.41
2023-01-15T09:59:26.517Z,91184.47
2023-01-15T10:00:51.572Z,91182.00
2023-01-15T10:02:35.015Z,91178.44
2023-01-15T10:03:57.167Z,91185.13
2023-01-15T10:05:31.919Z,91182.41
2023-01-15T10:07:22.951Z,91181.63
2023-01-15T10:08:53.295Z,91170.28
2023-01-15T10:10:20.055Z,91171.47
2023-01-15T10:12:09.273Z,91173.03
2023-01-15T10:13:47.672Z,91168.56
2023-01-15T10:15:27.908Z,91164.44
2023-01-15T10:16:50.019Z,91159.94
2023-01-15T10:18:18.010Z,91159.97
2023-01-15T10:19:44.849Z,91160.13
2023-01-15T10:21:31.107Z,91159.94
2023-01-15T10:23:31.602Z,91156.59
2023-01-15T10:24:57.718Z,91148.97
2023-01-15T10:26:31.777Z,91151.53
2023-01-15T10:27:56.359Z,91139.78
2023-01-15T10:29:23.739Z,91135.06
2023-01-15T10:30:51.636Z,91140.16
2023-01-15T10:32:37.381Z,91137.41
2023-01-15T10:34:04.595Z,91136.63
2023-01-15T10:35:42.020Z,91133.28
2023-01-15T10:37:30.918Z,91136.25
2023-01-15T10:39:25.647Z,91130.16
2023-01-15T10:41:25.042Z,91136.81
2023-01-15T10:43:20.621Z,91118.22
2023-01-15T10:45:01.229Z,91114.50
2023-01-15T10:46:33.521Z,91109.59
2023-01-15T10:48:05.918Z,91110.19
2023-01-15T10:49:30.657Z,91104.50
2023-01-15T10:50:52.986Z,91106.09
2023-01-15T10:52:31.239Z,91097.44
2023-01-15T10:54:03.060Z,91098.03
2023-01-15T10:55:35.109Z,91095.88
2023-01-15T10:57:20.652Z,91093.72
2023-01-15T10:58:54.595Z,91082.97
2023-01-15T11:00:17.169Z,91085.88
2023-01-15T11:01:40.842Z,91081.41
2023-01-15T11:03:08.224Z,91077.47
2023-01-15T11:04:33.279Z,91079.03
2023-01-15T11:05:55.104Z,91075.69
2023-01-15T11:07:18.203Z,91073.53
2023-01-15T11:09:12.415Z,91071.19
2023-01-15T11:10:26.279Z,91065.31
2023-01-15T11:12:00.664Z,91064.94
2023-01-15T11:13:43.361Z,91070.44
2023-01-15T11:15:34.369Z,91067.66
2023-01-15T11:17:08.348Z,91063.53
2023-01-15T11:18:54.975Z,91059.25
2023-01-15T11:20:34.684Z,91060.75
2023-01-15T11:21:56.727Z,91060.94
2023-01-15T11:23:23.343Z,91060.94
2023-01-15T11:24:54.755Z,91063.69
2023-01-15T11:26:31.173Z,91054.47
2023-01-15T11:27:53.356Z,91054.88
2023-01-15T11:29:25.647Z,91059.97
2023-01-15T11:30:55.512Z,91050.34
2023-01-15T11:32:29.728Z,91050.56
2023-01-15T11:34:03.578Z,91049.41
2023-01-15T11:35:26.077Z,91050.19
2023-01-15T11:36:49.205Z,91043.91
2023-01-15T11:38:15.056Z,91044.13
2023-01-15T11:39:36.713Z,91053.91
2023-01-15T11:41:01.755Z,91050.56
2023-01-15T11:42:42.228Z,91049.78
2023-01-15T11:44:22.331Z,91050.19
2023-01-15T11:46:07.013Z,91048.63
2023-01-15T11:47:47.178Z,91049.41
2023-01-15T11:49:29.540Z,91045.88
2023-01-15T11:50:56.885Z,91041.97
2023-01-15T11:52:22.843Z,91035.50
2023-01-15T11:53:50.893Z,91040.19
2023-01-15T11:55:15.989Z,91035.75
2023-01-15T11:56:43.429Z,91035.94
2023-01-15T11:58:08.941Z,91032.78
2023-01-15T11:59:30.627Z,91019.69
2023-01-15T12:00:55.854Z,91024.97
2023-01-15T12:02:34.912Z,91015.75
2023-01-15T12:04:01.353Z,91021.44
2023-01-15T12:05:27.236Z,91015.00
2023-01-15T12:06:49.591Z,91018.31
2023-01-15T12:08:42.254Z,91016.75
2023-01-15T12:10:16.399Z,91012.81
2023-01-15T12:11:47.011Z,91004.78
2023-01-15T12:13:46.335Z,91010.47
2023-01-15T12:15:30.672Z,91010.09
2023-01-15T12:17:14.319Z,91012.63
2023-01-15T12:19:01.115Z,91007.34
2023-01-15T12:20:33.154Z,91013.22
2023-01-15T12:22:09.693Z,91003.03
2023-01-15T12:23:58.442Z,91005.38
2023-01-15T12:25:29.636Z,91006.56
2023-01-15T12:27:00.135Z,90997.34
2023-01-15T12:28:38.649Z,90992.25
2023-01-15T12:30:03.802Z,91002.63
2023-01-15T12:31:55.382Z,91000.50
2023-01-15T12:33:26.009Z,91001.47
2023-01-15T12:35:04.233Z,90994.03
2023-01-15T12:38:41.082Z,90996.78
2023-01-15T12:40:14.901Z,91003.44
2023-01-15T12:41:58.780Z,90993.63
2023-01-15T12:43:46.577Z,90990.50
2023-01-15T12:45:25.344Z,90991.69
2023-01-15T12:46:47.666Z,90985.44
2023-01-15T12:48:32.025Z,90985.63
2023-01-15T12:50:29.120Z,90985.00
2023-01-15T12:52:24.370Z,90980.09
2023-01-15T12:54:19.406Z,90982.31
2023-01-15T12:55:51.845Z,90981.31
2023-01-15T12:57:26.203Z,90983.06
2023-01-15T12:59:15.890Z,90977.38
2023-01-15T13:00:42.875Z,90975.44
2023-01-15T13:02:21.919Z,90973.69
2023-01-15T13:03:49.489Z,90978.00
2023-01-15T13:05:34.339Z,90974.66
2023-01-15T13:07:14.375Z,90978.38
2023-01-15T13:08:46.171Z,90972.13
2023-01-15T13:10:25.580Z,90973.69
2023-01-15T13:11:47.562Z,90978.78
2023-01-15T13:13:20.553Z,90981.13
2023-01-15T13:14:46.344Z,90968.38
2023-01-15T13:16:38.512Z,90963.63
2023-01-15T13:18:15.854Z,90961.16
2023-01-15T13:20:21.465Z,90958.66
2023-01-15T13:21:45.632Z,90961.03
2023-01-15T13:23:18.551Z,90961.47
2023-01-15T13:24:45.964Z,90968.91
2023-01-15T13:26:10.376Z,90964.63
2023-01-15T13:27:37.939Z,90966.00
2023-01-15T13:29:05.933Z,90963.84
2023-01-15T13:30:54.090Z,90962.09
2023-01-15T13:32:20.889Z,90958.19
2023-01-15T13:33:49.016Z,90961.94
2023-01-15T13:35:32.339Z,90947.59
2023-01-15T13:36:59.364Z,90951.75
2023-01-15T13:38:27.268Z,90951.13
2023-01-15T13:39:51.112Z,90953.88
2023-01-15T13:41:40.884Z,90954.66
2023-01-15T13:43:04.407Z,90951.94
2023-01-15T13:44:36.627Z,90957.22
2023-01-15T13:45:59.549Z,90960.75
2023-01-15T13:47:25.893Z,90959.41
2023-01-15T13:48:50.183Z,90959.75
2023-01-15T13:50:33.955Z,90960.16
2023-01-15T13:51:58.869Z,90960.19
2023-01-15T13:53:34.177Z,90951.75
2023-01-15T13:55:01.095Z,90958.63
2023-01-15T13:56:32.875Z,90957.41
2023-01-15T13:57:55.059Z,90957.00
2023-01-15T13:59:44.609Z,90948.25
2023-01-15T14:01:18.177Z,90945.44
2023-01-15T14:02:41.221Z,90951.34
2023-01-15T14:04:07.575Z,90950.94
2023-01-15T14:05:36.627Z,90951.13
2023-01-15T14:06:58.531Z,90952.09
2023-01-15T14:08:28.279Z,90949.75
2023-01-15T14:09:51.262Z,90950.16
2023-01-15T14:11:38.969Z,90950.94
2023-01-15T14:13:56.160Z,90946.84
2023-01-15T14:15:40.996Z,90952.31
2023-01-15T14:17:28.369Z,90951.16
2023-01-15T14:19:14.727Z,90955.63
2023-01-15T14:20:56.372Z,90950.72
2023-01-15T14:22:49.220Z,90955.25
2023-01-15T14:24:48.230Z,90948.97
2023-01-15T14:26:28.064Z,90956.03
2023-01-15T14:28:08.989Z,90960.69
2023-01-15T14:29:53.211Z,90959.13
2023-01-15T14:31:28.813Z,90959.53
2023-01-15T14:33:11.471Z,90958.94
2023-01-15T14:34:35.481Z,90969.31
2023-01-15T14:35:57.363Z,90957.78
2023-01-15T14:37:18.905Z,90956.38
2023-01-15T14:38:55.767Z,90966.75
2023-01-15T14:40:22.423Z,90961.66
2023-01-15T14:42:02.541Z,90958.53
2023-01-15T14:43:26.088Z,90968.09
2023-01-15T14:44:55.954Z,90964.97
2023-01-15T14:46:34.680Z,90958.72
2023-01-15T14:47:58.991Z,90963.19
2023-01-15T14:49:32.304Z,90962.41
2023-01-15T14:50:54.931Z,90961.22
2023-01-15T14:52:23.762Z,90956.34
2023-01-15T14:53:56.143Z,90959.88
2023-01-15T14:55:19.490Z,90961.22
2023-01-15T14:56:55.584Z,90961.59
2023-01-15T14:59:02.605Z,90959.25
2023-01-15T15:00:29.443Z,90960.22
2023-01-15T15:01:58.157Z,90953.00
2023-01-15T15:03:34.667Z,90959.25
2023-01-15T15:04:58.081Z,90956.69
2023-01-15T15:06:20.767Z,90964.50
2023-01-15T15:07:48.069Z,90962.72
2023-01-15T15:09:14.133Z,90960.97
2023-01-15T15:10:41.297Z,90969.94
2023-01-15T15:12:44.341Z,90964.03
2023-01-15T15:14:09.772Z,90970.09
2023-01-15T15:15:42.472Z,90966.97
2023-01-15T15:17:14.548Z,90971.47
2023-01-15T15:19:09.724Z,90970.28
2023-01-15T15:20:59.622Z,90977.72
2023-01-15T15:22:22.239Z,90967.94
2023-01-15T15:24:07.423Z,90976.88
2023-01-15T15:25:35.331Z,90975.50
2023-01-15T15:26:57.015Z,90979.81
2023-01-15T15:28:18.872Z,90974.31
2023-01-15T15:29:41.029Z,90972.56
2023-01-15T15:31:03.347Z,90974.13
2023-01-15T15:32:25.878Z,90979.19
2023-01-15T15:33:47.544Z,90972.91
2023-01-15T15:35:29.155Z,90972.91
2023-01-15T15:36:51.109Z,90985.00
2023-01-15T15:38:19.111Z,90987.94
2023-01-15T15:39:45.160Z,90981.09
2023-01-15T15:41:12.175Z,90987.16
2023-01-15T15:42:57.975Z,90979.72
2023-01-15T15:45:03.650Z,90984.22
2023-01-15T15:46:49.786Z,90991.19
2023-01-15T15:48:37.051Z,90987.66
2023-01-15T15:49:58.732Z,90988.78
2023-01-15T15:51:48.703Z,90987.00
2023-01-15T15:53:17.218Z,90989.41
2023-01-15T15:54:38.949Z,90991.13
2023-01-15T15:56:01.847Z,90988.19
2023-01-15T15:57:24.006Z,90990.31
2023-01-15T15:58:46.358Z,90988.75
2023-01-15T16:00:29.639Z,90987.91
2023-01-15T16:01:52.026Z,90991.78
2023-01-15T16:03:23.199Z,90995.31
2023-01-15T16:05:22.858Z,90994.13
2023-01-15T16:06:44.829Z,90999.41
2023-01-15T16:08:20.659Z,90996.84
2023-01-15T16:09:48.220Z,90999.03
2023-01-15T16:11:13.727Z,91001.38
2023-01-15T16:12:41.144Z,91006.88
2023-01-15T16:14:08.267Z,91005.31
2023-01-15T16:15:38.732Z,91003.91
2023-01-15T16:17:00.605Z,91002.13
2023-01-15T16:18:29.321Z,90992.44
2023-01-15T16:19:51.532Z,91003.13
2023-01-15T16:21:24.457Z,91010.69
2023-01-15T16:22:48.954Z,91018.00
2023-01-15T16:24:26.157Z,91011.16
2023-01-15T16:25:59.048Z,91011.16
2023-01-15T16:27:22.305Z,91016.47
2023-01-15T16:28:54.022Z,91003.97
2023-01-15T16:30:17.448Z,91008.63
2023-01-15T16:31:39.439Z,91009.22
2023-01-15T16:33:04.413Z,91014.47
2023-01-15T16:34:30.735Z,91011.94
2023-01-15T16:36:04.642Z,91018.88
2023-01-15T16:37:30.786Z,91014.03
2023-01-15T16:38:54.272Z,91012.84
2023-01-15T16:40:33.011Z,91018.53
2023-01-15T16:42:02.400Z,91021.66
2023-01-15T16:43:26.033Z,91018.16
2023-01-15T16:44:55.904Z,91017.13
2023-01-15T16:46:20.402Z,91016.53
2023-01-15T16:48:03.303Z,91020.47
2023-01-15T16:49:26.920Z,91018.09
2023-01-15T16:50:49.426Z,91018.09
2023-01-15T16:52:49.324Z,91012.44
2023-01-15T16:54:30.279Z,91013.59
2023-01-15T16:55:55.368Z,91009.91
2023-01-15T16:57:32.454Z,90999.38
2023-01-15T16:58:54.660Z,91011.09
2023-01-15T17:00:30.940Z,90999.75
2023-01-15T17:01:59.951Z,90998.19
2023-01-15T17:03:24.237Z,90999.34
2023-01-15T17:04:46.958Z,90999.94
2023-01-15T17:06:13.560Z,91012.44
2023-01-15T17:07:39.229Z,91008.53
2023-01-15T17:09:01.260Z,90999.75
2023-01-15T17:10:28.420Z,91001.41
2023-01-15T17:11:52.460Z,91005.31
2023-01-15T17:13:19.779Z,91006.69
2023-01-15T17:14:41.835Z,91002.00
2023-01-15T17:16:07.107Z,91009.22
2023-01-15T17:17:29.692Z,91004.34
2023-01-15T17:18:52.395Z,91009.41
2023-01-15T17:20:17.101Z,91007.25
2023-01-15T17:21:39.822Z,91010.56
2023-01-15T17:23:01.446Z,91003.34
2023-01-15T17:24:23.343Z,91005.69
2023-01-15T17:25:48.120Z,91005.88
2023-01-15T17:27:09.774Z,91005.88